Time;durP1;ratioP1;P1;durP2;ratioP2;P2;SDS_P1;SDS_P2;PMS_P1;PMS_P2;Temp;Humidity;BMP_temperature;BMP_pressure;BME280_temperature;BME280_humidity;BME280_pressure;Samples;Min_cycle;Max_cycle;Signal;HPM_P1;HPM_P2
2022/03/25 00:00:51;;;;;;;8.32;5.32;;;;;;;;;;5075622;28;20028;-72
2022/03/25 00:03:17;;;;;;;12.68;5.57;;;;;;;;;;5075649;28;20515;-72
2022/03/25 00:05:43;;;;;;;11.75;5.57;;;;;;;;;;5057705;28;20024;-72
2022/03/25 00:08:10;;;;;;;9.35;5.38;;;;;;;;;;5075634;28;20072;-72
2022/03/25 00:10:36;;;;;;;9.43;5.55;;;;;;;;;;5073355;28;20050;-72
2022/03/25 00:13:03;;;;;;;11.48;6.53;;;;;;;;;;5055197;28;20041;-72
2022/03/25 00:15:29;;;;;;;10.77;6.20;;;;;;;;;;5073882;28;20040;-71
2022/03/25 00:17:55;;;;;;;13.02;6.05;;;;;;;;;;5075479;28;20043;-72
2022/03/25 00:20:22;;;;;;;12.73;6.15;;;;;;;;;;5075457;28;20021;-72
2022/03/25 00:22:48;;;;;;;10.15;5.60;;;;;;;;;;5075064;28;20030;-72
2022/03/25 00:25:14;;;;;;;12.05;6.63;;;;;;;;;;5071566;28;20035;-72
2022/03/25 00:27:41;;;;;;;10.07;5.22;;;;;;;;;;5075900;28;20025;-72
2022/03/25 00:30:08;;;;;;;8.32;5.05;;;;;;;;;;5075313;28;20039;-71
2022/03/25 00:32:35;;;;;;;8.93;5.50;;;;;;;;;;5075516;28;20393;-72
2022/03/25 00:35:01;;;;;;;9.15;5.97;;;;;;;;;;5075355;28;20084;-72
2022/03/25 00:37:28;;;;;;;9.32;5.45;;;;;;;;;;5072001;28;20028;-72
2022/03/25 00:39:54;;;;;;;8.80;5.65;;;;;;;;;;5074356;28;20023;-72
2022/03/25 00:42:21;;;;;;;10.05;5.43;;;;;;;;;;5074894;28;20025;-71
2022/03/25 00:44:47;;;;;;;9.43;5.18;;;;;;;;;;5075044;28;20032;-72
2022/03/25 00:47:14;;;;;;;10.00;5.25;;;;;;;;;;5074928;28;20462;-72
2022/03/25 00:49:40;;;;;;;8.00;5.50;;;;;;;;;;5072976;28;20031;-71
2022/03/25 00:52:07;;;;;;;9.75;5.72;;;;;;;;;;5054072;28;20017;-72
2022/03/25 00:54:33;;;;;;;9.80;5.45;;;;;;;;;;5066149;28;20045;-72
2022/03/25 00:57:00;;;;;;;12.45;6.18;;;;;;;;;;5055093;28;20469;-72
2022/03/25 00:59:27;;;;;;;10.02;5.20;;;;;;;;;;5056676;28;20186;-72
2022/03/25 01:01:53;;;;;;;10.02;5.85;;;;;;;;;;5059396;28;20028;-71
2022/03/25 01:04:20;;;;;;;10.90;6.00;;;;;;;;;;5054598;28;20073;-72
2022/03/25 01:06:46;;;;;;;11.27;6.10;;;;;;;;;;5059297;28;20482;-71
2022/03/25 01:09:12;;;;;;;10.02;5.78;;;;;;;;;;5058540;28;20379;-71
2022/03/25 01:11:39;;;;;;;8.70;5.60;;;;;;;;;;5059080;28;20094;-71
2022/03/25 01:14:06;;;;;;;11.27;5.60;;;;;;;;;;5058646;28;20027;-71
2022/03/25 01:16:34;;;;;;;8.82;5.78;;;;;;;;;;5056198;28;20017;-71
2022/03/25 01:19:01;;;;;;;10.93;5.70;;;;;;;;;;5056615;28;20028;-72
2022/03/25 01:21:27;;;;;;;8.95;5.55;;;;;;;;;;5059134;28;20033;-71
2022/03/25 01:23:54;;;;;;;11.65;5.28;;;;;;;;;;5058428;28;20021;-71
2022/03/25 01:26:20;;;;;;;9.75;5.55;;;;;;;;;;5058559;28;20029;-71
2022/03/25 01:28:47;;;;;;;11.40;5.80;;;;;;;;;;5057906;28;20535;-71
2022/03/25 01:31:13;;;;;;;10.77;5.80;;;;;;;;;;5054711;28;20036;-71
2022/03/25 01:33:40;;;;;;;9.65;5.63;;;;;;;;;;5059022;28;20028;-71
2022/03/25 01:36:07;;;;;;;9.45;5.57;;;;;;;;;;5058327;28;20028;-71
2022/03/25 01:38:34;;;;;;;9.30;5.68;;;;;;;;;;5058302;28;20029;-72
2022/03/25 01:41:00;;;;;;;8.70;5.15;;;;;;;;;;5040443;28;20435;-71
2022/03/25 01:43:27;;;;;;;9.68;5.15;;;;;;;;;;5054823;28;20022;-71
2022/03/25 01:45:54;;;;;;;8.27;4.90;;;;;;;;;;5057689;28;20021;-71
2022/03/25 01:48:21;;;;;;;6.53;4.65;;;;;;;;;;5058299;28;20032;-72
2022/03/25 01:50:48;;;;;;;12.02;5.50;;;;;;;;;;5057620;28;20031;-72
2022/03/25 01:53:19;;;;;;;9.27;5.57;;;;;;;;;;5058454;28;20023;-72
2022/03/25 01:55:51;;;;;;;10.52;5.45;;;;;;;;;;5075529;28;20048;-71
2022/03/25 01:58:17;;;;;;;8.23;5.18;;;;;;;;;;5057234;28;20033;-72
2022/03/25 02:00:44;;;;;;;8.73;4.90;;;;;;;;;;5078460;28;20024;-71
2022/03/25 02:09:00;;;;;;;8.30;5.35;;;;;;;;;;5029600;28;20591;-71
2022/03/25 02:11:28;;;;;;;11.85;5.72;;;;;;;;;;5032549;28;20030;-71
2022/03/25 02:13:54;;;;;;;8.75;5.43;;;;;;;;;;5033314;28;20028;-71
2022/03/25 02:16:33;;;;;;;9.25;5.53;;;;;;;;;;5033788;28;20035;-71
2022/03/25 02:18:59;;;;;;;8.52;5.38;;;;;;;;;;5033311;28;20041;-71
2022/03/25 02:21:29;;;;;;;10.27;5.32;;;;;;;;;;5033699;28;20031;-71
2022/03/25 02:23:55;;;;;;;9.80;5.72;;;;;;;;;;5032826;28;20420;-71
2022/03/25 02:26:23;;;;;;;8.38;5.07;;;;;;;;;;5033219;28;20014;-71
2022/03/25 02:28:49;;;;;;;7.10;4.80;;;;;;;;;;5015614;28;20018;-71
2022/03/25 02:31:17;;;;;;;11.48;5.50;;;;;;;;;;5033496;28;20033;-71
2022/03/25 02:33:44;;;;;;;10.13;5.40;;;;;;;;;;5033588;28;20022;-71
2022/03/25 02:36:10;;;;;;;9.15;5.57;;;;;;;;;;5033015;28;20036;-71
2022/03/25 02:38:37;;;;;;;9.65;5.43;;;;;;;;;;5032580;28;20035;-71
2022/03/25 02:41:04;;;;;;;12.27;5.55;;;;;;;;;;5033081;28;20014;-71
2022/03/25 02:43:31;;;;;;;9.00;5.25;;;;;;;;;;5033060;28;20029;-71
2022/03/25 02:45:57;;;;;;;8.02;4.88;;;;;;;;;;5033760;28;20025;-71
2022/03/25 02:48:23;;;;;;;8.35;5.40;;;;;;;;;;5032773;28;20036;-71
2022/03/25 02:50:50;;;;;;;7.18;4.85;;;;;;;;;;5032873;28;20045;-71
2022/03/25 02:53:16;;;;;;;9.07;5.10;;;;;;;;;;5032286;28;20478;-71
2022/03/25 02:55:43;;;;;;;7.65;5.03;;;;;;;;;;5032718;28;20048;-71
2022/03/25 02:58:10;;;;;;;8.10;5.22;;;;;;;;;;5033091;28;20526;-71
2022/03/25 03:00:36;;;;;;;8.63;5.35;;;;;;;;;;5032551;28;20500;-71
2022/03/25 03:03:03;;;;;;;11.95;5.40;;;;;;;;;;5032425;28;20017;-71
2022/03/25 03:05:29;;;;;;;9.43;5.47;;;;;;;;;;5032567;28;20023;-71
2022/03/25 03:07:56;;;;;;;10.25;5.90;;;;;;;;;;5020805;28;20052;-71
2022/03/25 03:10:22;;;;;;;11.02;5.75;;;;;;;;;;5012654;28;20216;-71
2022/03/25 03:12:49;;;;;;;8.73;5.40;;;;;;;;;;5011307;28;20028;-71
2022/03/25 03:15:17;;;;;;;8.05;5.15;;;;;;;;;;5012540;28;20448;-71
2022/03/25 03:17:47;;;;;;;9.20;5.63;;;;;;;;;;5012353;28;20034;-71
2022/03/25 03:20:14;;;;;;;11.48;5.75;;;;;;;;;;5012537;28;20432;-71
2022/03/25 03:22:41;;;;;;;9.85;5.78;;;;;;;;;;5012079;28;20397;-71
2022/03/25 03:25:08;;;;;;;10.57;5.20;;;;;;;;;;5013023;28;20030;-72
2022/03/25 03:27:34;;;;;;;10.05;5.95;;;;;;;;;;5012185;28;20429;-72
2022/03/25 03:30:00;;;;;;;9.02;5.38;;;;;;;;;;5012344;28;20470;-72
2022/03/25 03:32:27;;;;;;;10.82;5.22;;;;;;;;;;5012211;28;20052;-71
2022/03/25 03:34:54;;;;;;;7.35;4.35;;;;;;;;;;5012646;28;20018;-71
2022/03/25 03:37:20;;;;;;;9.60;5.53;;;;;;;;;;5011965;28;20030;-72
2022/03/25 03:39:47;;;;;;;8.70;4.95;;;;;;;;;;5012483;28;20030;-71
2022/03/25 03:42:14;;;;;;;8.48;5.10;;;;;;;;;;5012459;28;20018;-71
2022/03/25 03:44:40;;;;;;;10.35;6.10;;;;;;;;;;5012331;28;20017;-71
2022/03/25 03:47:08;;;;;;;11.70;5.50;;;;;;;;;;5012218;28;20072;-71
2022/03/25 03:49:35;;;;;;;11.43;5.25;;;;;;;;;;5012027;28;20505;-72
2022/03/25 03:52:02;;;;;;;7.07;5.05;;;;;;;;;;5012228;28;20026;-71
2022/03/25 03:54:28;;;;;;;9.55;5.10;;;;;;;;;;5011846;28;20398;-71
2022/03/25 03:56:55;;;;;;;9.15;5.35;;;;;;;;;;5012023;28;20025;-72
2022/03/25 03:59:21;;;;;;;6.90;4.75;;;;;;;;;;5011863;28;20026;-71
2022/03/25 04:01:48;;;;;;;8.68;5.03;;;;;;;;;;5011837;28;20018;-71
2022/03/25 04:04:14;;;;;;;8.52;4.93;;;;;;;;;;5011868;28;20083;-71
2022/03/25 04:06:41;;;;;;;8.05;4.95;;;;;;;;;;5010724;28;20508;-71
2022/03/25 04:09:07;;;;;;;7.40;5.32;;;;;;;;;;5011632;28;20034;-71
2022/03/25 04:11:33;;;;;;;10.15;5.43;;;;;;;;;;4989849;28;20486;-72
2022/03/25 04:13:59;;;;;;;12.13;5.40;;;;;;;;;;5011633;28;20036;-72
2022/03/25 04:16:26;;;;;;;9.57;5.40;;;;;;;;;;5011538;28;20478;-72
2022/03/25 04:18:52;;;;;;;9.63;5.80;;;;;;;;;;5012172;28;20034;-71
2022/03/25 04:21:18;;;;;;;10.65;5.63;;;;;;;;;;5011504;28;20505;-71
2022/03/25 04:23:45;;;;;;;10.07;5.28;;;;;;;;;;5011640;28;20018;-72
2022/03/25 04:26:12;;;;;;;10.48;5.63;;;;;;;;;;5011490;28;20371;-72
2022/03/25 04:28:38;;;;;;;11.40;5.53;;;;;;;;;;5011361;28;20046;-71
2022/03/25 04:31:04;;;;;;;8.60;5.00;;;;;;;;;;5007824;28;20393;-72
2022/03/25 04:33:33;;;;;;;9.48;4.97;;;;;;;;;;5011359;28;20083;-71
2022/03/25 04:36:00;;;;;;;7.82;5.00;;;;;;;;;;5015795;28;20018;-71
2022/03/25 04:38:27;;;;;;;9.27;5.30;;;;;;;;;;5015608;28;20014;-71
2022/03/25 04:40:53;;;;;;;11.68;5.15;;;;;;;;;;5015609;28;20028;-71
2022/03/25 04:43:20;;;;;;;9.00;5.45;;;;;;;;;;5015620;28;20018;-72
2022/03/25 04:45:46;;;;;;;10.25;5.47;;;;;;;;;;5015807;28;20041;-71
2022/03/25 04:48:14;;;;;;;9.75;5.05;;;;;;;;;;5014888;28;20026;-71
2022/03/25 04:50:40;;;;;;;8.40;5.13;;;;;;;;;;5015171;28;20548;-71
2022/03/25 04:53:07;;;;;;;9.98;5.15;;;;;;;;;;5015234;28;20121;-71
2022/03/25 04:55:33;;;;;;;8.93;4.75;;;;;;;;;;4997762;28;20520;-71
2022/03/25 04:58:00;;;;;;;7.32;4.97;;;;;;;;;;4998002;28;20471;-71
2022/03/25 05:00:26;;;;;;;8.98;5.50;;;;;;;;;;5015178;28;20032;-71
2022/03/25 05:02:53;;;;;;;6.53;4.63;;;;;;;;;;5014972;28;20030;-71
2022/03/25 05:05:19;;;;;;;8.65;5.20;;;;;;;;;;5014864;28;20022;-72
2022/03/25 05:07:46;;;;;;;8.10;5.40;;;;;;;;;;5014709;28;20052;-72
2022/03/25 05:10:13;;;;;;;9.00;5.00;;;;;;;;;;5015172;28;20026;-72
2022/03/25 05:12:40;;;;;;;10.40;5.50;;;;;;;;;;5015050;28;20535;-72
2022/03/25 05:15:07;;;;;;;7.47;4.97;;;;;;;;;;4992827;28;20029;-72
2022/03/25 05:17:33;;;;;;;9.57;5.72;;;;;;;;;;4992807;28;20022;-71
2022/03/25 05:20:04;;;;;;;10.60;5.40;;;;;;;;;;5014785;28;20556;-71
2022/03/25 05:22:30;;;;;;;9.82;6.03;;;;;;;;;;5014811;28;20018;-72
2022/03/25 05:24:56;;;;;;;11.98;5.13;;;;;;;;;;5015245;28;20026;-71
2022/03/25 05:27:22;;;;;;;7.65;5.00;;;;;;;;;;5014550;28;20042;-72
2022/03/25 05:29:49;;;;;;;9.88;4.93;;;;;;;;;;5014519;28;20026;-72
2022/03/25 05:32:15;;;;;;;13.52;5.70;;;;;;;;;;5014384;28;20040;-72
2022/03/25 05:34:41;;;;;;;13.35;5.20;;;;;;;;;;4996948;28;20499;-71
2022/03/25 05:37:08;;;;;;;13.43;5.40;;;;;;;;;;5015001;28;20556;-71
2022/03/25 05:39:34;;;;;;;10.52;5.30;;;;;;;;;;5014368;28;20040;-71
2022/03/25 05:42:01;;;;;;;9.68;5.90;;;;;;;;;;5014312;28;20026;-71
2022/03/25 05:44:27;;;;;;;11.60;5.82;;;;;;;;;;5014196;28;20413;-71
2022/03/25 05:46:53;;;;;;;10.65;5.57;;;;;;;;;;5013994;28;20047;-71
2022/03/25 05:49:20;;;;;;;10.10;5.40;;;;;;;;;;5014319;28;20040;-72
2022/03/25 05:51:47;;;;;;;10.93;5.70;;;;;;;;;;5014499;28;20041;-71
2022/03/25 05:54:13;;;;;;;9.57;5.40;;;;;;;;;;5014172;28;20444;-71
2022/03/25 05:56:40;;;;;;;9.30;5.28;;;;;;;;;;5013968;28;20024;-71
2022/03/25 05:59:06;;;;;;;9.90;4.97;;;;;;;;;;5014345;28;20026;-71
2022/03/25 06:01:32;;;;;;;13.02;5.22;;;;;;;;;;5013877;28;20024;-72
2022/03/25 06:03:59;;;;;;;11.77;5.50;;;;;;;;;;5014357;28;20037;-71
2022/03/25 06:06:25;;;;;;;9.85;6.05;;;;;;;;;;5013848;28;20040;-71
2022/03/25 06:08:51;;;;;;;12.48;6.28;;;;;;;;;;5013693;28;20413;-71
2022/03/25 06:11:18;;;;;;;13.23;6.55;;;;;;;;;;5013702;28;20371;-71
2022/03/25 06:13:44;;;;;;;11.07;6.40;;;;;;;;;;5014096;28;20018;-71
2022/03/25 06:16:11;;;;;;;10.15;5.55;;;;;;;;;;5013771;28;20488;-71
2022/03/25 06:18:37;;;;;;;11.73;6.85;;;;;;;;;;5013554;28;20033;-71
2022/03/25 06:21:04;;;;;;;13.70;6.22;;;;;;;;;;5013614;28;20033;-71
2022/03/25 06:23:30;;;;;;;12.75;6.10;;;;;;;;;;5013597;28;20018;-71
2022/03/25 06:25:56;;;;;;;10.20;5.72;;;;;;;;;;4995543;28;20030;-71
2022/03/25 06:28:23;;;;;;;9.65;6.20;;;;;;;;;;5013299;28;20036;-72
2022/03/25 06:30:49;;;;;;;15.02;6.65;;;;;;;;;;5011466;28;20034;-71
2022/03/25 06:33:16;;;;;;;11.52;5.88;;;;;;;;;;4995655;28;20437;-71
2022/03/25 06:35:44;;;;;;;10.98;6.68;;;;;;;;;;5013239;28;20029;-72
2022/03/25 06:38:10;;;;;;;10.13;5.97;;;;;;;;;;5013308;28;20052;-71
2022/03/25 06:40:37;;;;;;;12.02;7.10;;;;;;;;;;4997858;28;20020;-71
2022/03/25 06:43:04;;;;;;;14.75;7.32;;;;;;;;;;5013698;28;20030;-71
2022/03/25 06:45:31;;;;;;;15.25;6.95;;;;;;;;;;5013083;28;20026;-72
2022/03/25 06:47:58;;;;;;;12.02;7.32;;;;;;;;;;5012794;28;20531;-71
2022/03/25 06:50:24;;;;;;;10.15;6.38;;;;;;;;;;5012937;28;20406;-72
2022/03/25 06:52:51;;;;;;;10.20;6.80;;;;;;;;;;5013206;28;20030;-72
2022/03/25 06:55:18;;;;;;;10.43;6.30;;;;;;;;;;5013051;28;20397;-71
2022/03/25 06:57:44;;;;;;;8.05;5.38;;;;;;;;;;5012677;28;20033;-72
2022/03/25 07:00:11;;;;;;;9.25;5.78;;;;;;;;;;5012860;28;20025;-72
2022/03/25 07:02:38;;;;;;;10.25;5.78;;;;;;;;;;5012581;28;20026;-71
2022/03/25 07:05:05;;;;;;;9.48;5.47;;;;;;;;;;5012697;28;20048;-72
2022/03/25 07:07:34;;;;;;;8.70;5.53;;;;;;;;;;5014568;28;20056;-72
2022/03/25 07:10:00;;;;;;;13.40;5.35;;;;;;;;;;5013132;28;20022;-72
2022/03/25 07:12:27;;;;;;;13.35;6.60;;;;;;;;;;5012523;28;20022;-72
2022/03/25 07:14:53;;;;;;;11.05;6.60;;;;;;;;;;5012080;28;20044;-72
2022/03/25 07:17:19;;;;;;;11.10;6.30;;;;;;;;;;5009198;28;20026;-71
2022/03/25 07:19:46;;;;;;;12.10;6.47;;;;;;;;;;5011329;28;20036;-72
2022/03/25 07:22:12;;;;;;;10.05;6.05;;;;;;;;;;5012850;28;20044;-72
2022/03/25 07:24:38;;;;;;;8.65;5.93;;;;;;;;;;5011608;28;20429;-72
2022/03/25 07:27:05;;;;;;;12.70;6.13;;;;;;;;;;5007145;28;20032;-72
2022/03/25 07:29:31;;;;;;;11.15;6.20;;;;;;;;;;5010595;28;20037;-72
2022/03/25 07:31:57;;;;;;;9.55;6.20;;;;;;;;;;4987516;28;20030;-72
2022/03/25 07:34:24;;;;;;;12.30;6.13;;;;;;;;;;5009331;28;20022;-72
2022/03/25 07:36:50;;;;;;;10.30;6.20;;;;;;;;;;5012015;28;20033;-71
2022/03/25 07:39:16;;;;;;;9.07;5.75;;;;;;;;;;5011379;28;20405;-71
2022/03/25 07:41:43;;;;;;;9.63;6.10;;;;;;;;;;5010493;28;20025;-71
2022/03/25 07:44:09;;;;;;;12.52;5.97;;;;;;;;;;5011396;28;20405;-72
2022/03/25 07:46:35;;;;;;;10.50;6.75;;;;;;;;;;5011102;28;20032;-72
2022/03/25 07:49:02;;;;;;;12.63;6.50;;;;;;;;;;5011960;28;20041;-72
2022/03/25 07:51:28;;;;;;;12.48;6.47;;;;;;;;;;5010858;28;20029;-71
2022/03/25 07:53:54;;;;;;;13.65;6.72;;;;;;;;;;5011106;28;20034;-72
2022/03/25 07:56:21;;;;;;;8.55;6.78;;;;;;;;;;5010121;28;20497;-72
2022/03/25 07:58:47;;;;;;;12.55;6.53;;;;;;;;;;5010472;28;20048;-71
2022/03/25 08:01:14;;;;;;;8.52;5.78;;;;;;;;;;5010806;28;20496;-70
2022/03/25 08:03:40;;;;;;;12.15;5.88;;;;;;;;;;5011689;28;20486;-72
2022/03/25 08:06:08;;;;;;;13.07;5.90;;;;;;;;;;5011085;28;20038;-70
2022/03/25 08:08:36;;;;;;;9.13;6.22;;;;;;;;;;5008025;28;20615;-70
2022/03/25 08:11:03;;;;;;;11.50;5.90;;;;;;;;;;5009088;28;20036;-70
2022/03/25 08:13:29;;;;;;;13.73;6.10;;;;;;;;;;5011207;28;20033;-70
2022/03/25 08:15:55;;;;;;;11.68;5.90;;;;;;;;;;5011464;28;20025;-70
2022/03/25 08:18:22;;;;;;;9.43;5.43;;;;;;;;;;5008077;28;20034;-70
2022/03/25 08:20:49;;;;;;;10.77;5.93;;;;;;;;;;5010877;28;20026;-71
2022/03/25 08:28:48;;;;;;;9.35;6.25;;;;;;;;;;4997180;28;20033;-70
2022/03/25 08:31:15;;;;;;;8.73;5.32;;;;;;;;;;5010523;28;20037;-71
2022/03/25 08:33:42;;;;;;;10.02;5.75;;;;;;;;;;5010223;28;20022;-70
2022/03/25 08:36:08;;;;;;;10.48;6.00;;;;;;;;;;4993136;28;20025;-70
2022/03/25 08:38:34;;;;;;;11.02;5.95;;;;;;;;;;5011103;28;20018;-71
2022/03/25 08:41:01;;;;;;;8.40;6.30;;;;;;;;;;4992654;28;20032;-71
2022/03/25 08:43:28;;;;;;;8.90;5.75;;;;;;;;;;5010602;28;20028;-71
2022/03/25 08:45:54;;;;;;;8.77;6.13;;;;;;;;;;5011395;28;20026;-71
2022/03/25 08:48:21;;;;;;;13.35;6.10;;;;;;;;;;5010252;28;20040;-71
2022/03/25 08:50:47;;;;;;;10.55;6.18;;;;;;;;;;5010520;28;20026;-70
2022/03/25 08:53:13;;;;;;;10.85;6.90;;;;;;;;;;5010542;28;20036;-70
2022/03/25 08:55:40;;;;;;;8.80;7.53;;;;;;;;;;4993130;28;20034;-70
2022/03/25 08:58:06;;;;;;;13.18;8.45;;;;;;;;;;5008006;28;20463;-70
2022/03/25 09:00:32;;;;;;;11.23;8.27;;;;;;;;;;5010406;28;20022;-70
2022/03/25 09:02:59;;;;;;;12.43;9.88;;;;;;;;;;5010566;28;20038;-71
2022/03/25 09:05:25;;;;;;;14.68;9.60;;;;;;;;;;5010797;28;20072;-70
2022/03/25 09:07:51;;;;;;;14.75;9.30;;;;;;;;;;5009826;28;20042;-71
2022/03/25 09:10:18;;;;;;;12.00;8.50;;;;;;;;;;5010355;28;20038;-71
2022/03/25 09:12:45;;;;;;;11.23;8.80;;;;;;;;;;5011087;28;20026;-70
2022/03/25 09:15:15;;;;;;;11.63;8.77;;;;;;;;;;4988790;28;20026;-71
2022/03/25 09:17:44;;;;;;;15.45;8.60;;;;;;;;;;4988547;28;20490;-71
2022/03/25 09:20:11;;;;;;;11.98;8.10;;;;;;;;;;5011499;28;20024;-71
2022/03/25 09:22:38;;;;;;;9.13;7.10;;;;;;;;;;5004690;28;20326;-71
2022/03/25 09:25:04;;;;;;;11.65;7.78;;;;;;;;;;4996939;28;20034;-71
2022/03/25 09:27:31;;;;;;;9.40;7.68;;;;;;;;;;5013824;28;20022;-71
2022/03/25 09:29:57;;;;;;;9.85;7.00;;;;;;;;;;5014110;28;20034;-71
2022/03/25 09:32:24;;;;;;;11.48;7.70;;;;;;;;;;5014329;28;20018;-70
2022/03/25 09:35:08;;;;;;;12.85;7.57;;;;;;;;;;5014174;28;20486;-71
2022/03/25 09:37:39;;;;;;;10.07;7.55;;;;;;;;;;5013365;28;20030;-71
2022/03/25 09:40:07;;;;;;;11.20;7.10;;;;;;;;;;5013903;28;20500;-71
2022/03/25 09:42:34;;;;;;;13.93;7.43;;;;;;;;;;5013892;28;20022;-71
2022/03/25 09:45:04;;;;;;;10.52;7.88;;;;;;;;;;5013342;28;20033;-71
2022/03/25 09:47:31;;;;;;;;;;;;;;;;;;5013304;28;20014;-71
2022/03/25 09:49:59;;;;;;;10.95;6.80;;;;;;;;;;4996231;28;19936;-71
2022/03/25 09:52:26;;;;;;;8.35;5.88;;;;;;;;;;5013070;28;20386;-70
2022/03/25 09:54:52;;;;;;;7.35;5.72;;;;;;;;;;5014080;28;20022;-71
2022/03/25 09:57:19;;;;;;;11.27;5.60;;;;;;;;;;5013199;28;20060;-70
2022/03/25 09:59:45;;;;;;;8.15;4.95;;;;;;;;;;4990431;28;20037;-71
2022/03/25 10:02:12;;;;;;;5.75;4.75;;;;;;;;;;5002546;28;20032;-71
2022/03/25 10:04:38;;;;;;;5.85;4.35;;;;;;;;;;5006870;28;20026;-71
2022/03/25 10:07:18;;;;;;;7.00;4.68;;;;;;;;;;5013390;28;20028;-70
2022/03/25 10:09:45;;;;;;;5.25;4.30;;;;;;;;;;5013123;28;20033;-71
2022/03/25 10:12:24;;;;;;;8.90;4.32;;;;;;;;;;5013661;28;20024;-71
2022/03/25 10:14:52;;;;;;;4.90;3.95;;;;;;;;;;5016067;28;20038;-71
2022/03/25 10:17:19;;;;;;;5.40;4.05;;;;;;;;;;5012566;28;20032;-71
2022/03/25 10:19:53;;;;;;;6.10;3.92;;;;;;;;;;5013378;28;20040;-71
2022/03/25 10:22:19;;;;;;;9.85;4.63;;;;;;;;;;5013284;28;20026;-71
2022/03/25 10:24:48;;;;;;;8.82;3.90;;;;;;;;;;5013556;28;20028;-71
2022/03/25 10:27:21;;;;;;;5.68;3.38;;;;;;;;;;4995102;28;20044;-71
2022/03/25 10:29:48;;;;;;;4.15;3.00;;;;;;;;;;5013130;28;20033;-70
2022/03/25 10:32:16;;;;;;;4.18;3.17;;;;;;;;;;5007521;28;20026;-71
2022/03/25 10:34:43;;;;;;;5.65;3.30;;;;;;;;;;5013026;28;20028;-71
2022/03/25 10:37:11;;;;;;;4.90;3.05;;;;;;;;;;5012511;28;20056;-70
2022/03/25 10:39:38;;;;;;;4.63;3.25;;;;;;;;;;5008126;28;20038;-71
2022/03/25 10:42:05;;;;;;;4.80;3.05;;;;;;;;;;5012909;28;20030;-71
2022/03/25 10:44:36;;;;;;;5.18;3.00;;;;;;;;;;5012741;28;20030;-71
2022/03/25 10:47:20;;;;;;;4.82;2.92;;;;;;;;;;5012773;28;20028;-71
2022/03/25 10:49:47;;;;;;;8.93;3.15;;;;;;;;;;5011504;28;20022;-70
2022/03/25 10:52:24;;;;;;;3.92;2.85;;;;;;;;;;5012643;28;20375;-71
2022/03/25 10:54:51;;;;;;;3.95;2.90;;;;;;;;;;5011245;28;20033;-71
2022/03/25 10:57:18;;;;;;;5.20;2.30;;;;;;;;;;5011221;28;20494;-71
2022/03/25 10:59:57;;;;;;;5.65;2.80;;;;;;;;;;5012335;28;20383;-70
2022/03/25 11:02:24;;;;;;;3.67;2.58;;;;;;;;;;5012183;28;20022;-71
2022/03/25 11:04:50;;;;;;;3.85;2.92;;;;;;;;;;5011903;28;20036;-71
2022/03/25 11:07:17;;;;;;;7.55;2.33;;;;;;;;;;5012323;28;20041;-70
2022/03/25 11:09:44;;;;;;;7.30;2.45;;;;;;;;;;5012800;28;20030;-70
2022/03/25 11:12:11;;;;;;;6.43;2.47;;;;;;;;;;5012344;28;20018;-71
2022/03/25 11:14:37;;;;;;;3.90;2.80;;;;;;;;;;5011869;28;20033;-70
2022/03/25 11:17:07;;;;;;;2.85;2.15;;;;;;;;;;4994548;28;20018;-71
2022/03/25 11:19:35;;;;;;;2.92;2.60;;;;;;;;;;4994662;28;20038;-71
2022/03/25 11:22:03;;;;;;;3.33;2.30;;;;;;;;;;5013005;28;20036;-71
2022/03/25 11:24:53;;;;;;;4.22;2.53;;;;;;;;;;5012096;28;20034;-71
2022/03/25 11:27:24;;;;;;;3.08;2.78;;;;;;;;;;4998544;28;20042;-71
2022/03/25 11:29:52;;;;;;;2.47;2.28;;;;;;;;;;5011643;28;20505;-70
2022/03/25 11:32:19;;;;;;;4.50;2.50;;;;;;;;;;5011459;28;20034;-71
2022/03/25 11:34:47;;;;;;;4.55;2.92;;;;;;;;;;5011858;28;20025;-71
2022/03/25 11:37:16;;;;;;;2.80;2.40;;;;;;;;;;5012025;28;20524;-71
2022/03/25 11:39:42;;;;;;;3.97;2.33;;;;;;;;;;5011245;28;20484;-71
2022/03/25 11:42:29;;;;;;;3.75;2.58;;;;;;;;;;5011662;28;20026;-70
2022/03/25 11:45:14;;;;;;;2.50;2.22;;;;;;;;;;5012115;28;20018;-71
2022/03/25 11:47:40;;;;;;;3.63;2.50;;;;;;;;;;5011847;28;20018;-70
2022/03/25 11:50:25;;;;;;;3.28;2.38;;;;;;;;;;5011679;28;20399;-70
2022/03/25 11:52:52;;;;;;;5.50;2.50;;;;;;;;;;4980678;28;20022;-70
2022/03/25 11:55:18;;;;;;;3.17;2.10;;;;;;;;;;4994162;28;20486;-70
2022/03/25 11:57:46;;;;;;;2.85;2.25;;;;;;;;;;4994269;28;20033;-70
2022/03/25 12:00:23;;;;;;;4.95;2.40;;;;;;;;;;5011663;28;20029;-70
2022/03/25 12:03:02;;;;;;;4.63;2.70;;;;;;;;;;5011323;28;20032;-71
2022/03/25 12:05:28;;;;;;;2.42;2.20;;;;;;;;;;5012048;28;20018;-71
2022/03/25 12:08:13;;;;;;;4.80;2.40;;;;;;;;;;5011451;28;20046;-70
2022/03/25 12:10:47;;;;;;;4.47;2.25;;;;;;;;;;4996210;28;20402;-71
2022/03/25 12:13:13;;;;;;;4.40;2.53;;;;;;;;;;5007056;28;20491;-70
2022/03/25 12:15:40;;;;;;;3.22;2.65;;;;;;;;;;5011772;28;20034;-70
2022/03/25 12:18:25;;;;;;;4.25;2.30;;;;;;;;;;4993640;28;20029;-71
2022/03/25 12:20:52;;;;;;;5.25;2.70;;;;;;;;;;5011360;28;20103;-71
2022/03/25 12:23:18;;;;;;;4.97;2.60;;;;;;;;;;5011098;28;20022;-70
2022/03/25 12:25:45;;;;;;;4.43;2.45;;;;;;;;;;4977911;28;20041;-71
2022/03/25 12:28:11;;;;;;;4.40;2.38;;;;;;;;;;5012038;28;20022;-70
2022/03/25 12:30:38;;;;;;;4.53;2.58;;;;;;;;;;5011433;28;20026;-70
2022/03/25 12:33:08;;;;;;;7.95;2.67;;;;;;;;;;5010914;28;20021;-70
2022/03/25 12:35:36;;;;;;;4.20;2.28;;;;;;;;;;5011448;28;20018;-70
2022/03/25 12:38:03;;;;;;;4.40;2.60;;;;;;;;;;4993527;28;20038;-70
2022/03/25 12:40:31;;;;;;;4.57;2.55;;;;;;;;;;5011564;28;20056;-70
2022/03/25 12:42:58;;;;;;;3.40;2.58;;;;;;;;;;5011768;28;20018;-70
2022/03/25 12:45:32;;;;;;;7.25;2.50;;;;;;;;;;5008553;28;20026;-70
2022/03/25 12:48:07;;;;;;;3.38;2.63;;;;;;;;;;5010637;28;20048;-72
2022/03/25 12:50:33;;;;;;;4.38;3.13;;;;;;;;;;5011009;28;20036;-72
2022/03/25 12:53:00;;;;;;;4.03;2.90;;;;;;;;;;5011478;28;20037;-72
2022/03/25 12:55:28;;;;;;;6.10;2.90;;;;;;;;;;5009828;28;20490;-72
2022/03/25 12:58:04;;;;;;;6.97;3.05;;;;;;;;;;5014822;28;20486;-71
2022/03/25 13:00:33;;;;;;;4.50;2.80;;;;;;;;;;5011605;28;20409;-71
2022/03/25 13:02:59;;;;;;;5.05;2.83;;;;;;;;;;5013997;28;20029;-72
2022/03/25 13:05:26;;;;;;;4.20;2.90;;;;;;;;;;5014599;28;20060;-72
2022/03/25 13:07:53;;;;;;;3.45;2.60;;;;;;;;;;5014590;28;20045;-72
2022/03/25 13:10:19;;;;;;;6.22;3.38;;;;;;;;;;5013802;28;20032;-71
2022/03/25 13:12:53;;;;;;;4.05;2.83;;;;;;;;;;5012967;28;20018;-71
2022/03/25 13:15:25;;;;;;;4.07;2.92;;;;;;;;;;5013577;28;20046;-71
2022/03/25 13:17:52;;;;;;;5.70;3.10;;;;;;;;;;4995867;28;20044;-71
2022/03/25 13:20:20;;;;;;;3.85;2.72;;;;;;;;;;4997219;28;20034;-72
2022/03/25 13:22:57;;;;;;;4.35;3.50;;;;;;;;;;5014920;28;20036;-71
2022/03/25 13:25:28;;;;;;;5.85;3.47;;;;;;;;;;5014505;28;20030;-71
2022/03/25 13:27:55;;;;;;;3.97;3.15;;;;;;;;;;5012565;28;20107;-72
2022/03/25 13:30:22;;;;;;;5.55;3.20;;;;;;;;;;4996121;28;20030;-71
2022/03/25 13:32:56;;;;;;;7.93;3.20;;;;;;;;;;5014455;28;20032;-71
2022/03/25 13:35:30;;;;;;;7.30;3.40;;;;;;;;;;5014123;28;20397;-71
2022/03/25 13:38:04;;;;;;;5.03;3.30;;;;;;;;;;5012810;28;20041;-71
2022/03/25 13:40:33;;;;;;;10.10;3.13;;;;;;;;;;5013830;28;20044;-71
2022/03/25 13:43:00;;;;;;;5.03;3.40;;;;;;;;;;5014399;28;20010;-71
2022/03/25 13:45:26;;;;;;;6.22;2.80;;;;;;;;;;4996422;28;20040;-71
2022/03/25 13:48:04;;;;;;;7.30;3.22;;;;;;;;;;5011822;28;20259;-71
2022/03/25 13:50:31;;;;;;;4.50;3.17;;;;;;;;;;5014864;28;20076;-71
2022/03/25 13:53:09;;;;;;;3.95;2.75;;;;;;;;;;5000597;28;20030;-71
2022/03/25 13:55:40;;;;;;;4.70;3.40;;;;;;;;;;5013373;28;20427;-71
2022/03/25 13:58:06;;;;;;;;;;;;;;;;;;5010193;28;20389;-71
2022/03/25 14:00:36;;;;;;;6.25;3.33;;;;;;;;;;5011984;28;19914;-71
2022/03/25 14:03:04;;;;;;;3.97;3.28;;;;;;;;;;5008754;28;20034;-72
2022/03/25 14:05:36;;;;;;;5.53;3.20;;;;;;;;;;5012869;28;20509;-71
2022/03/25 14:08:04;;;;;;;4.68;3.40;;;;;;;;;;4994649;28;20422;-71
2022/03/25 14:10:31;;;;;;;4.28;3.47;;;;;;;;;;4994610;28;20091;-71
2022/03/25 14:12:58;;;;;;;3.97;3.30;;;;;;;;;;5014196;28;20409;-72
2022/03/25 14:15:26;;;;;;;4.20;3.15;;;;;;;;;;5012477;28;20393;-72
2022/03/25 14:17:53;;;;;;;7.10;3.55;;;;;;;;;;5010005;28;20512;-71
2022/03/25 14:20:23;;;;;;;6.53;3.95;;;;;;;;;;5013308;28;20080;-72
2022/03/25 14:22:54;;;;;;;6.50;3.90;;;;;;;;;;4995932;28;20044;-71
2022/03/25 14:25:22;;;;;;;8.50;3.83;;;;;;;;;;5013710;28;20032;-72
2022/03/25 14:27:50;;;;;;;4.95;3.53;;;;;;;;;;5012583;28;20024;-71
2022/03/25 14:30:16;;;;;;;5.53;3.55;;;;;;;;;;5013071;28;20498;-72
2022/03/25 14:32:42;;;;;;;6.00;3.40;;;;;;;;;;5011979;28;20382;-71
2022/03/25 14:35:09;;;;;;;4.90;3.60;;;;;;;;;;5012709;28;20028;-72
2022/03/25 14:37:36;;;;;;;5.65;3.50;;;;;;;;;;5012691;28;20045;-72
2022/03/25 14:40:03;;;;;;;6.93;3.42;;;;;;;;;;5005264;28;20034;-72
2022/03/25 14:42:29;;;;;;;5.88;3.58;;;;;;;;;;5012864;28;20018;-71
2022/03/25 14:44:56;;;;;;;5.70;3.70;;;;;;;;;;5012860;28;20038;-72
2022/03/25 14:47:22;;;;;;;6.35;3.65;;;;;;;;;;5012891;28;20014;-72
2022/03/25 14:49:48;;;;;;;6.90;3.30;;;;;;;;;;5012676;28;20022;-71
2022/03/25 14:52:15;;;;;;;4.05;3.15;;;;;;;;;;5013133;28;20026;-71